Time;durP1;ratioP1;P1;durP2;ratioP2;P2;SDS_P1;SDS_P2;PMS_P1;PMS_P2;Temp;Humidity;BMP_temperature;BMP_pressure;BME280_temperature;BME280_humidity;BME280_pressure;Samples;Min_cycle;Max_cycle;Signal;HPM_P1;HPM_P2
2022/03/31 00:00:42;;;;;;;55.60;26.60;;;;;;;6.14;96.74;94816.63;2063677;28;21062;-62
2022/03/31 00:01:44;;;;;;;51.28;28.05;;;;;;;6.12;96.78;94810.72;2063995;28;20194;-61
2022/03/31 00:02:46;;;;;;;47.35;26.00;;;;;;;6.17;96.57;94802.53;2064107;28;20226;-61
2022/03/31 00:03:47;;;;;;;59.72;26.20;;;;;;;6.19;96.66;94805.03;2063936;28;20213;-62
2022/03/31 00:04:49;;;;;;;51.10;25.50;;;;;;;6.19;96.75;94800.66;2064031;28;20538;-62
2022/03/31 00:05:50;;;;;;;44.45;23.90;;;;;;;6.18;96.71;94804.22;2063726;28;20232;-62
2022/03/31 00:06:52;;;;;;;58.58;27.35;;;;;;;6.14;96.54;94800.22;2063998;28;20197;-62
2022/03/31 00:07:59;;;;;;;44.90;25.42;;;;;;;6.09;96.73;94800.56;2064033;28;20654;-62
2022/03/31 00:09:00;;;;;;;49.28;25.38;;;;;;;6.05;96.97;94793.94;2063569;28;20590;-62
2022/03/31 00:10:02;;;;;;;48.90;26.30;;;;;;;5.98;97.20;94798.00;2063930;28;20201;-61
2022/03/31 00:11:04;;;;;;;49.05;26.00;;;;;;;5.99;97.57;94794.44;2063337;28;20277;-61
2022/03/31 00:12:05;;;;;;;46.67;25.55;;;;;;;6.04;97.51;94802.72;2064220;28;20202;-62
2022/03/31 00:13:10;;;;;;;44.47;26.13;;;;;;;6.05;97.31;94801.75;2063453;28;20209;-62
2022/03/31 00:14:12;;;;;;;51.00;25.02;;;;;;;6.08;97.15;94793.72;2063265;28;20205;-61
2022/03/31 00:15:13;;;;;;;41.67;24.35;;;;;;;6.08;97.06;94788.53;2065143;28;20214;-62
2022/03/31 00:16:15;;;;;;;51.90;26.55;;;;;;;6.06;97.64;94795.63;2065186;28;20237;-61
2022/03/31 00:17:17;;;;;;;49.20;27.20;;;;;;;6.06;97.47;94790.41;2065618;28;20226;-62
2022/03/31 00:18:18;;;;;;;46.45;25.45;;;;;;;6.10;97.37;94794.41;2065763;28;20202;-62
2022/03/31 00:19:20;;;;;;;47.78;25.63;;;;;;;6.09;97.68;94794.53;2065584;28;20198;-62
2022/03/31 00:20:22;;;;;;;54.03;27.50;;;;;;;6.06;97.26;94795.63;2065364;28;20206;-63
2022/03/31 00:21:23;;;;;;;45.85;26.98;;;;;;;6.05;97.22;94799.16;2065560;28;20202;-63
2022/03/31 00:22:25;;;;;;;46.28;26.55;;;;;;;6.08;97.35;94795.50;2065651;28;20544;-62
2022/03/31 00:23:26;;;;;;;51.63;26.55;;;;;;;6.05;97.81;94793.13;2065208;28;20270;-62
2022/03/31 00:24:29;;;;;;;49.15;26.48;;;;;;;6.07;97.44;94786.84;2065700;28;20588;-62
2022/03/31 00:25:30;;;;;;;45.75;24.10;;;;;;;6.09;97.13;94784.97;2065216;28;20194;-61
2022/03/31 00:26:31;;;;;;;46.83;26.05;;;;;;;6.10;97.44;94783.22;2065081;28;20202;-61
2022/03/31 00:27:34;;;;;;;49.78;25.33;;;;;;;6.09;97.36;94784.97;2064969;28;20191;-61
2022/03/31 00:28:35;;;;;;;54.88;28.00;;;;;;;6.11;97.44;94783.06;2057036;28;20208;-62
2022/03/31 00:29:37;;;;;;;49.85;26.77;;;;;;;6.12;97.25;94779.53;2064904;28;20669;-62
2022/03/31 00:30:38;;;;;;;46.13;26.52;;;;;;;6.16;97.15;94780.13;2064107;28;20198;-62
2022/03/31 00:31:40;;;;;;;52.25;28.08;;;;;;;6.09;97.20;94771.97;2064916;28;20548;-63
2022/03/31 00:32:42;;;;;;;49.35;24.85;;;;;;;6.08;97.27;94778.13;2065029;28;20206;-62
2022/03/31 00:33:43;;;;;;;49.78;26.65;;;;;;;6.10;97.53;94778.81;2065042;28;20264;-62
2022/03/31 00:34:45;;;;;;;48.67;27.13;;;;;;;6.09;97.08;94771.16;2065480;28;20210;-62
2022/03/31 00:35:46;;;;;;;50.17;28.48;;;;;;;6.21;96.62;94777.13;2064809;28;20233;-61
2022/03/31 00:36:48;;;;;;;46.88;27.05;;;;;;;6.26;95.87;94772.41;2065169;28;20203;-62
2022/03/31 00:37:49;;;;;;;47.13;27.23;;;;;;;6.22;95.93;94778.81;2065221;28;20194;-62
2022/03/31 00:40:15;;;;;;;47.55;26.50;;;;;;;6.08;95.94;94772.13;2064721;28;20665;-61
2022/03/31 00:41:16;;;;;;;48.00;26.80;;;;;;;5.99;96.53;94770.25;2064970;28;20233;-62
2022/03/31 00:42:18;;;;;;;44.05;26.52;;;;;;;5.97;96.85;94764.34;2065502;28;20670;-61
2022/03/31 00:43:20;;;;;;;55.75;28.35;;;;;;;5.96;97.31;94763.53;2065363;28;20222;-61
2022/03/31 00:44:22;;;;;;;52.15;27.67;;;;;;;6.06;96.77;94766.22;2065027;28;20210;-62
2022/03/31 00:45:25;;;;;;;51.80;28.42;;;;;;;6.09;96.79;94760.75;2064999;28;20202;-61
2022/03/31 00:46:27;;;;;;;49.95;26.05;;;;;;;6.03;96.81;94762.06;2064709;28;20198;-61
2022/03/31 00:47:29;;;;;;;50.35;26.77;;;;;;;6.11;96.75;94758.84;2064698;28;20199;-62
2022/03/31 00:48:30;;;;;;;51.72;28.38;;;;;;;6.18;96.29;94756.59;2065363;28;20206;-61
2022/03/31 00:49:34;;;;;;;51.20;27.23;;;;;;;6.22;96.06;94763.22;2065368;28;20203;-61
2022/03/31 00:50:35;;;;;;;49.85;27.30;;;;;;;6.10;96.16;94762.41;2064375;28;20198;-61
2022/03/31 00:51:37;;;;;;;55.40;29.17;;;;;;;6.12;96.65;94756.13;2065446;28;20199;-61
2022/03/31 00:52:39;;;;;;;51.47;28.10;;;;;;;6.24;96.21;94758.72;2065416;28;20198;-62
2022/03/31 00:53:41;;;;;;;45.70;26.45;;;;;;;6.22;95.79;94752.81;2065363;28;20195;-61
2022/03/31 00:54:43;;;;;;;53.38;26.15;;;;;;;6.13;95.96;94754.34;2065179;28;20198;-62
2022/03/31 00:55:45;;;;;;;51.58;27.52;;;;;;;6.16;95.83;94748.09;2064921;28;20690;-62
2022/03/31 00:56:51;;;;;;;49.20;27.13;;;;;;;6.13;96.10;94754.34;2065518;28;20836;-62
2022/03/31 00:57:55;;;;;;;49.38;27.75;;;;;;;6.13;96.27;94752.59;2065363;28;20194;-61
2022/03/31 00:58:57;;;;;;;52.10;27.05;;;;;;;6.09;96.60;94752.94;2064627;28;20208;-62
2022/03/31 00:59:58;;;;;;;52.17;26.35;;;;;;;6.29;95.65;94754.78;2064624;28;20295;-62
2022/03/31 01:01:00;;;;;;;54.30;28.77;;;;;;;6.30;95.46;94756.44;2064194;28;20816;-62
2022/03/31 01:02:03;;;;;;;53.58;28.38;;;;;;;6.23;95.83;94752.66;2065075;28;20642;-62
2022/03/31 01:03:05;;;;;;;51.67;28.67;;;;;;;6.25;95.90;94756.00;2065290;28;20938;-61
2022/03/31 01:04:07;;;;;;;50.90;28.65;;;;;;;6.22;96.15;94752.81;2064521;28;20264;-61
2022/03/31 01:05:09;;;;;;;52.72;29.38;;;;;;;6.18;96.61;94754.00;2064637;28;20206;-61
2022/03/31 01:06:11;;;;;;;55.15;29.88;;;;;;;6.14;96.55;94750.81;2067415;28;20608;-61
2022/03/31 01:07:12;;;;;;;53.13;27.73;;;;;;;6.18;96.73;94749.63;2067972;28;20209;-62
2022/03/31 01:08:14;;;;;;;59.58;30.35;;;;;;;6.00;95.94;94743.28;2065126;28;20203;-62
2022/03/31 01:09:15;;;;;;;51.22;28.63;;;;;;;5.99;97.13;94747.66;2065260;28;20201;-62
2022/03/31 01:10:17;;;;;;;47.28;27.90;;;;;;;6.14;96.55;94745.63;2065088;28;20345;-62
2022/03/31 01:11:19;;;;;;;48.78;26.98;;;;;;;6.11;95.57;94745.84;2064463;28;20592;-62
2022/03/31 01:12:22;;;;;;;52.08;28.50;;;;;;;6.04;95.76;94745.53;2067978;28;20714;-62
2022/03/31 01:13:24;;;;;;;53.65;27.33;;;;;;;5.91;96.02;94747.44;2070341;28;20201;-62
2022/03/31 01:14:26;;;;;;;49.15;28.60;;;;;;;5.99;95.67;94747.66;2065148;28;20186;-62
2022/03/31 01:15:27;;;;;;;55.78;29.77;;;;;;;5.82;96.34;94746.41;2064714;28;20708;-63
2022/03/31 01:16:32;;;;;;;58.47;29.90;;;;;;;5.70;96.89;94742.16;2065141;28;20209;-63
2022/03/31 01:17:39;;;;;;;59.33;29.48;;;;;;;5.60;97.91;94747.25;2065054;28;20221;-62
2022/03/31 01:18:40;;;;;;;55.83;28.00;;;;;;;5.62;98.17;94742.75;2064383;28;20574;-62
2022/03/31 01:19:42;;;;;;;65.10;29.70;;;;;;;5.59;98.63;94745.59;2065092;28;20213;-62
2022/03/31 01:20:43;;;;;;;58.92;30.00;;;;;;;5.64;98.64;94742.63;2064705;28;20563;-62
2022/03/31 01:21:48;;;;;;;60.45;31.42;;;;;;;5.63;98.73;94747.00;2064972;28;20205;-62
2022/03/31 01:22:51;;;;;;;57.50;30.00;;;;;;;5.69;98.50;94746.53;2064726;28;20200;-62
2022/03/31 01:23:54;;;;;;;57.83;29.80;;;;;;;5.75;98.04;94745.22;2064368;28;20199;-62
2022/03/31 01:24:58;;;;;;;53.88;29.45;;;;;;;5.67;98.57;94747.59;2063930;28;20244;-62
2022/03/31 01:25:59;;;;;;;60.50;30.50;;;;;;;5.68;98.44;94749.25;2063798;28;20226;-62
2022/03/31 01:27:01;;;;;;;56.95;30.42;;;;;;;5.73;98.49;94741.91;2064919;28;20190;-62
2022/03/31 01:28:03;;;;;;;58.92;31.08;;;;;;;5.78;98.69;94738.94;2064990;28;20198;-62
2022/03/31 01:29:05;;;;;;;53.35;30.42;;;;;;;5.84;98.08;94743.66;2064982;28;20202;-62
2022/03/31 01:30:10;;;;;;;57.22;30.60;;;;;;;5.78;98.45;94736.34;2064988;28;20210;-63
2022/03/31 01:31:11;;;;;;;56.75;30.40;;;;;;;5.90;98.28;94744.00;2064325;28;20302;-62
2022/03/31 01:32:13;;;;;;;57.70;29.23;;;;;;;5.89;98.47;94738.94;2065193;28;20670;-62
2022/03/31 01:33:15;;;;;;;49.90;28.73;;;;;;;5.97;98.18;94741.78;2065107;28;20194;-63
2022/03/31 01:34:16;;;;;;;51.20;27.75;;;;;;;5.91;98.06;94735.25;2065046;28;20293;-62
2022/03/31 01:35:18;;;;;;;53.45;29.17;;;;;;;5.94;98.10;94729.00;2064505;28;20194;-62
2022/03/31 01:36:20;;;;;;;56.67;28.92;;;;;;;5.96;98.39;94723.69;2064583;28;20222;-62
2022/03/31 01:37:21;;;;;;;52.60;29.25;;;;;;;6.07;98.02;94727.09;2065109;28;20744;-62
2022/03/31 01:38:23;;;;;;;51.58;28.77;;;;;;;6.08;97.93;94723.56;2064364;28;20572;-62
2022/03/31 01:39:24;;;;;;;60.45;30.55;;;;;;;6.01;98.00;94719.78;2065075;28;20650;-62
2022/03/31 01:40:26;;;;;;;56.72;31.58;;;;;;;6.01;97.81;94726.75;2064588;28;20649;-64
2022/03/31 01:41:27;;;;;;;53.97;29.77;;;;;;;6.02;97.98;94724.03;2064828;28;20198;-62
2022/03/31 01:42:30;;;;;;;57.20;30.77;;;;;;;6.03;97.87;94725.69;2064201;28;20202;-62
2022/03/31 01:43:31;;;;;;;57.00;29.65;;;;;;;6.00;97.81;94718.16;2064569;28;20207;-62
2022/03/31 01:44:33;;;;;;;48.58;28.58;;;;;;;5.98;97.99;94721.78;2062458;28;20264;-62
2022/03/31 01:45:35;;;;;;;57.92;28.95;;;;;;;5.98;97.83;94720.03;2064669;28;20407;-62
2022/03/31 01:46:37;;;;;;;59.90;29.10;;;;;;;5.99;97.56;94720.88;2064952;28;20202;-62
2022/03/31 01:47:39;;;;;;;54.83;27.42;;;;;;;5.96;97.56;94715.91;2064925;28;20653;-62
2022/03/31 01:48:41;;;;;;;48.45;26.55;;;;;;;5.89;97.55;94720.75;2064732;28;20560;-62
2022/03/31 01:49:42;;;;;;;50.83;26.42;;;;;;;5.81;97.77;94718.75;2064869;28;20199;-62
2022/03/31 01:50:44;;;;;;;51.70;27.15;;;;;;;5.87;97.87;94714.84;2064488;28;20593;-62
2022/03/31 01:51:51;;;;;;;48.72;26.33;;;;;;;5.88;97.43;94714.72;2063152;28;20742;-63
2022/03/31 01:52:52;;;;;;;46.42;26.90;;;;;;;5.85;97.52;94712.38;2064891;28;20213;-62
2022/03/31 01:53:54;;;;;;;47.33;25.60;;;;;;;5.87;97.42;94713.06;2064803;28;20209;-62
2022/03/31 01:54:55;;;;;;;50.75;25.88;;;;;;;5.83;97.67;94710.84;2064899;28;20631;-62
2022/03/31 01:55:58;;;;;;;50.22;26.67;;;;;;;5.88;97.51;94703.50;2064492;28;20230;-62
2022/03/31 01:57:00;;;;;;;49.40;25.83;;;;;;;5.91;97.07;94705.84;2064854;28;20202;-63
2022/03/31 01:58:01;;;;;;;47.42;25.80;;;;;;;5.92;96.93;94694.53;2064919;28;20199;-62
2022/03/31 01:59:03;;;;;;;55.05;26.92;;;;;;;5.79;97.11;94686.06;2064687;28;20206;-62
2022/03/31 02:00:09;;;;;;;50.83;26.40;;;;;;;5.77;97.33;94695.75;2064590;28;20213;-62
2022/03/31 02:01:10;;;;;;;43.25;24.48;;;;;;;5.82;97.23;94693.59;2064415;28;20230;-62
2022/03/31 02:02:13;;;;;;;40.80;24.20;;;;;;;5.81;97.16;94694.56;2064797;28;20194;-62
2022/03/31 02:03:15;;;;;;;47.15;23.23;;;;;;;5.74;97.58;94692.44;2064962;28;20199;-62
2022/03/31 02:04:16;;;;;;;37.25;23.80;;;;;;;5.78;97.64;94692.19;2063470;28;20826;-62
2022/03/31 02:05:18;;;;;;;46.13;24.40;;;;;;;5.72;97.75;94677.91;2064864;28;20210;-62
2022/03/31 02:06:19;;;;;;;48.40;25.42;;;;;;;5.75;97.54;94691.50;2064278;28;20222;-62
2022/03/31 02:07:21;;;;;;;49.15;26.23;;;;;;;5.79;97.77;94688.66;2064829;28;20201;-62
2022/03/31 02:08:22;;;;;;;49.05;25.02;;;;;;;5.78;97.44;94687.00;2064823;28;20556;-62
2022/03/31 02:09:24;;;;;;;44.85;25.77;;;;;;;5.82;97.24;94684.06;2063346;28;20199;-62
2022/03/31 02:10:25;;;;;;;46.72;23.83;;;;;;;5.72;97.43;94681.38;2064317;28;20210;-62
2022/03/31 02:11:28;;;;;;;50.33;25.90;;;;;;;5.66;97.46;94678.41;2064730;28;20202;-62
2022/03/31 02:12:30;;;;;;;49.72;25.88;;;;;;;5.65;97.62;94687.97;2053809;28;20206;-62
2022/03/31 02:13:31;;;;;;;45.30;25.85;;;;;;;5.62;97.94;94680.41;2056464;28;20551;-62
2022/03/31 02:14:37;;;;;;;48.10;25.38;;;;;;;5.68;97.93;94679.13;2064763;28;20200;-62
2022/03/31 02:15:38;;;;;;;41.45;23.55;;;;;;;5.67;97.33;94680.91;2064062;28;20203;-62
2022/03/31 02:16:40;;;;;;;46.00;24.52;;;;;;;5.66;97.41;94678.41;2064814;28;20206;-62
2022/03/31 02:17:42;;;;;;;45.33;24.52;;;;;;;5.66;97.55;94676.63;2064819;28;20225;-62
2022/03/31 02:18:43;;;;;;;41.78;24.20;;;;;;;5.64;98.02;94675.94;2062937;28;20198;-62
2022/03/31 02:19:45;;;;;;;44.95;24.20;;;;;;;5.66;97.64;94674.03;2064046;28;20218;-62
2022/03/31 02:20:46;;;;;;;41.38;24.75;;;;;;;5.65;97.86;94672.41;2064129;28;20222;-62
2022/03/31 02:21:49;;;;;;;53.90;25.23;;;;;;;5.63;97.23;94681.28;2064564;28;20199;-62
2022/03/31 02:22:51;;;;;;;44.47;25.42;;;;;;;5.65;97.33;94679.38;2064082;28;20203;-62
2022/03/31 02:23:52;;;;;;;46.10;24.73;;;;;;;5.63;97.30;94676.06;2064289;28;20194;-62
2022/03/31 02:24:54;;;;;;;44.08;23.33;;;;;;;5.62;97.30;94677.81;2064618;28;20246;-61
2022/03/31 02:25:55;;;;;;;52.25;25.02;;;;;;;5.60;97.54;94682.31;2063606;28;20233;-62
2022/03/31 02:26:57;;;;;;;44.63;25.77;;;;;;;5.58;97.53;94679.03;2064187;28;20299;-62
2022/03/31 02:27:59;;;;;;;39.40;23.17;;;;;;;5.69;96.62;94668.59;2064615;28;20551;-62
2022/03/31 02:29:01;;;;;;;44.03;22.15;;;;;;;5.66;96.93;94663.66;2064140;28;20654;-62
2022/03/31 02:30:05;;;;;;;41.50;24.42;;;;;;;5.70;96.62;94667.69;2063910;28;20221;-63
2022/03/31 02:31:06;;;;;;;39.75;22.48;;;;;;;5.70;96.48;94670.28;2064081;28;20843;-62
2022/03/31 02:32:08;;;;;;;47.40;24.30;;;;;;;5.61;96.82;94665.00;2064629;28;20198;-62
2022/03/31 02:33:10;;;;;;;42.53;23.90;;;;;;;5.53;96.70;94666.41;2063498;28;20752;-62
2022/03/31 02:34:12;;;;;;;37.60;21.00;;;;;;;5.57;97.03;94666.16;2064500;28;20688;-62
2022/03/31 02:35:14;;;;;;;38.80;22.45;;;;;;;5.57;96.98;94663.56;2064219;28;20198;-62
2022/03/31 02:36:15;;;;;;;46.70;23.13;;;;;;;5.52;97.21;94662.16;2063579;28;20225;-62
2022/03/31 02:37:17;;;;;;;36.08;19.98;;;;;;;5.53;97.04;94661.22;2063900;28;20203;-61
2022/03/31 02:38:19;;;;;;;36.97;20.02;;;;;;;5.55;97.07;94666.28;2064146;28;20410;-62
2022/03/31 02:39:20;;;;;;;35.08;20.00;;;;;;;5.56;96.49;94665.34;2063519;28;20203;-62
2022/03/31 02:40:22;;;;;;;38.90;20.25;;;;;;;5.45;96.55;94660.16;2055817;28;20710;-62
2022/03/31 02:41:23;;;;;;;31.27;17.98;;;;;;;5.43;96.46;94668.09;2063546;28;20258;-63
2022/03/31 02:42:25;;;;;;;29.52;18.10;;;;;;;5.45;96.25;94665.34;2064534;28;20207;-63
2022/03/31 02:43:27;;;;;;;25.75;16.85;;;;;;;5.34;95.89;94653.22;2064428;28;20195;-62
2022/03/31 02:44:29;;;;;;;28.02;17.15;;;;;;;5.27;96.20;94652.91;2064442;28;20755;-63
2022/03/31 02:45:30;;;;;;;24.70;16.15;;;;;;;5.36;95.75;94659.13;2063951;28;20210;-63
2022/03/31 02:46:32;;;;;;;26.70;16.67;;;;;;;5.31;95.73;94659.50;2064538;28;20535;-62
2022/03/31 02:47:35;;;;;;;23.70;15.15;;;;;;;5.26;95.84;94656.44;2064424;28;20226;-62
2022/03/31 02:48:37;;;;;;;33.25;17.52;;;;;;;5.27;95.59;94654.66;2064364;28;20194;-62
2022/03/31 02:49:38;;;;;;;25.05;16.40;;;;;;;5.23;95.94;94656.66;2063919;28;20203;-62
2022/03/31 02:50:40;;;;;;;28.73;16.75;;;;;;;5.27;95.58;94658.09;2054857;28;20202;-62
2022/03/31 02:51:41;;;;;;;31.13;16.98;;;;;;;5.24;95.51;94653.13;2063945;28;20199;-63
2022/03/31 02:55:25;;;;;;;34.03;17.30;;;;;;;5.28;94.71;94646.75;2063468;28;20201;-62
2022/03/31 02:56:27;;;;;;;28.13;18.42;;;;;;;5.20;95.07;94648.31;2064493;28;20686;-63
2022/03/31 02:57:28;;;;;;;25.15;16.60;;;;;;;5.23;94.95;94648.88;2064296;28;20206;-63
2022/03/31 02:58:30;;;;;;;27.20;16.75;;;;;;;5.13;95.00;94645.34;2064446;28;20198;-62
2022/03/31 02:59:31;;;;;;;29.77;16.15;;;;;;;5.07;95.71;94636.28;2064507;28;20191;-62
2022/03/31 03:00:35;;;;;;;25.23;16.50;;;;;;;5.13;95.58;94642.75;2063956;28;20194;-62
2022/03/31 03:01:36;;;;;;;23.83;16.00;;;;;;;4.99;95.47;94640.41;2062996;28;20206;-62
2022/03/31 03:02:38;;;;;;;25.65;17.60;;;;;;;5.03;95.86;94642.66;2064503;28;20205;-62
2022/03/31 03:03:39;;;;;;;23.45;16.75;;;;;;;5.04;96.12;94639.13;2064393;28;20217;-62
2022/03/31 03:04:41;;;;;;;24.13;15.98;;;;;;;5.05;95.93;94638.16;2064326;28;20273;-62
2022/03/31 03:05:42;;;;;;;25.42;18.08;;;;;;;5.01;96.12;94638.53;2063897;28;20226;-62
2022/03/31 03:06:43;;;;;;;31.85;16.85;;;;;;;5.06;95.80;94636.41;2064402;28;20205;-62
2022/03/31 03:07:45;;;;;;;28.00;16.90;;;;;;;5.10;95.66;94637.81;2064190;28;20194;-65
2022/03/31 03:08:46;;;;;;;22.73;16.27;;;;;;;5.15;95.37;94641.72;2064317;28;20209;-63
2022/03/31 03:09:48;;;;;;;26.38;18.23;;;;;;;5.08;95.61;94635.34;2064414;28;20861;-63
2022/03/31 03:10:50;;;;;;;26.42;15.93;;;;;;;5.09;95.24;94642.16;2063694;28;20693;-62
2022/03/31 03:11:51;;;;;;;23.30;15.90;;;;;;;5.07;95.49;94640.66;2064474;28;20685;-62
2022/03/31 03:12:56;;;;;;;26.58;17.10;;;;;;;4.95;95.45;94627.69;2063993;28;20253;-62
2022/03/31 03:13:58;;;;;;;25.60;16.58;;;;;;;4.97;95.32;94632.75;2063602;28;20209;-62
2022/03/31 03:14:59;;;;;;;26.17;17.73;;;;;;;4.94;95.59;94638.19;2064311;28;20579;-63
2022/03/31 03:16:05;;;;;;;29.75;18.45;;;;;;;4.82;96.11;94626.16;2063820;28;20229;-62
2022/03/31 03:17:07;;;;;;;31.25;16.80;;;;;;;4.87;96.02;94632.63;2064457;28;20281;-62
2022/03/31 03:18:09;;;;;;;30.63;16.35;;;;;;;4.90;96.08;94632.41;2071923;28;20543;-62
2022/03/31 03:19:10;;;;;;;27.95;17.45;;;;;;;4.92;95.97;94630.53;2071758;28;20206;-62
2022/03/31 03:20:14;;;;;;;27.15;17.17;;;;;;;4.89;96.03;94633.34;2064546;28;20202;-62
2022/03/31 03:21:16;;;;;;;29.42;17.13;;;;;;;4.91;96.08;94625.44;2063209;28;20685;-62
2022/03/31 03:22:17;;;;;;;27.48;16.90;;;;;;;4.92;96.00;94627.09;2064498;28;20199;-63
2022/03/31 03:23:19;;;;;;;28.08;17.17;;;;;;;4.93;95.58;94628.75;2064340;28;20524;-62
2022/03/31 03:24:22;;;;;;;26.50;16.55;;;;;;;4.98;95.59;94631.81;2064383;28;20720;-62
2022/03/31 03:25:23;;;;;;;25.83;16.85;;;;;;;4.95;95.36;94624.25;2063714;28;20214;-62
2022/03/31 03:26:25;;;;;;;25.45;16.50;;;;;;;4.66;95.04;94629.91;2064382;28;20201;-62
2022/03/31 03:27:26;;;;;;;30.35;18.15;;;;;;;4.69;95.94;94634.06;2064351;28;20198;-62
2022/03/31 03:28:29;;;;;;;29.98;16.63;;;;;;;4.25;96.98;94627.88;2064301;28;20214;-62
2022/03/31 03:29:31;;;;;;;24.17;15.60;;;;;;;4.42;97.34;94622.25;2063803;28;20249;-62
2022/03/31 03:30:32;;;;;;;30.08;16.58;;;;;;;4.54;97.48;94629.09;2063930;28;20525;-62
2022/03/31 03:31:34;;;;;;;28.67;17.10;;;;;;;4.64;97.00;94626.63;2064257;28;20205;-62
2022/03/31 03:32:36;;;;;;;26.20;16.30;;;;;;;4.68;96.96;94625.44;2064042;28;20277;-62
2022/03/31 03:33:38;;;;;;;25.80;17.63;;;;;;;4.72;96.53;94637.25;2064355;28;20844;-62
2022/03/31 03:34:39;;;;;;;28.38;17.48;;;;;;;4.72;96.56;94631.22;2064249;28;20202;-62
2022/03/31 03:35:41;;;;;;;27.13;17.35;;;;;;;4.78;96.29;94630.75;2063923;28;20675;-62
2022/03/31 03:36:43;;;;;;;23.70;16.17;;;;;;;4.64;96.28;94618.03;2064144;28;20854;-62
2022/03/31 03:37:44;;;;;;;26.90;17.00;;;;;;;4.68;96.33;94635.00;2063798;28;20195;-62
2022/03/31 03:38:46;;;;;;;28.35;17.80;;;;;;;4.74;96.04;94624.16;2062386;28;20197;-62
2022/03/31 03:39:47;;;;;;;28.27;17.30;;;;;;;4.75;95.87;94631.00;2064328;28;20202;-62
2022/03/31 03:40:49;;;;;;;27.80;17.27;;;;;;;4.75;95.82;94628.41;2063762;28;20226;-63
2022/03/31 03:41:50;;;;;;;24.02;16.60;;;;;;;4.71;96.08;94627.81;2064275;28;20194;-62
2022/03/31 03:42:54;;;;;;;28.80;17.45;;;;;;;4.75;95.72;94634.41;2064271;28;20198;-62
2022/03/31 03:43:56;;;;;;;28.33;17.33;;;;;;;4.70;95.96;94631.34;2064089;28;20509;-63
2022/03/31 03:44:58;;;;;;;30.48;18.15;;;;;;;4.74;96.08;94634.53;2063603;28;20202;-62
2022/03/31 03:46:00;;;;;;;31.23;18.55;;;;;;;4.71;96.07;94640.78;2063567;28;20237;-63
2022/03/31 03:47:02;;;;;;;28.58;18.15;;;;;;;4.72;95.75;94628.63;2064169;28;20733;-62
2022/03/31 03:48:06;;;;;;;29.20;18.23;;;;;;;4.83;95.61;94631.22;2063818;28;20305;-62
2022/03/31 03:49:09;;;;;;;22.80;15.10;;;;;;;4.80;95.60;94636.63;2063836;28;20713;-62
2022/03/31 03:50:11;;;;;;;25.75;17.17;;;;;;;4.75;95.27;94633.59;2064187;28;20205;-62
2022/03/31 03:51:12;;;;;;;27.38;17.05;;;;;;;4.74;96.11;94631.94;2063718;28;20565;-62
2022/03/31 03:52:14;;;;;;;29.35;17.70;;;;;;;4.70;95.88;94630.50;2064215;28;20202;-62
2022/03/31 03:53:15;;;;;;;27.33;17.95;;;;;;;4.68;95.56;94633.22;2064188;28;20290;-63
2022/03/31 03:54:17;;;;;;;28.55;17.38;;;;;;;4.70;95.62;94638.28;2064340;28;20538;-62
2022/03/31 03:55:19;;;;;;;25.98;16.35;;;;;;;4.64;96.03;94631.81;2064210;28;20586;-62
2022/03/31 03:56:20;;;;;;;25.63;16.98;;;;;;;4.65;95.85;94628.28;2063817;28;20568;-62
2022/03/31 03:57:23;;;;;;;31.73;17.95;;;;;;;4.65;95.86;94630.06;2064228;28;20588;-62
2022/03/31 03:58:24;;;;;;;22.50;16.05;;;;;;;4.69;95.65;94629.69;2064303;28;20206;-62
2022/03/31 03:59:26;;;;;;;29.73;18.30;;;;;;;4.74;95.39;94630.19;2064197;28;20194;-62
2022/03/31 04:00:28;;;;;;;27.58;17.83;;;;;;;4.60;95.52;94611.44;2063213;28;20202;-62
2022/03/31 04:01:30;;;;;;;26.65;18.25;;;;;;;4.71;95.89;94625.22;2063998;28;20293;-62
2022/03/31 04:02:32;;;;;;;27.40;17.73;;;;;;;4.62;95.96;94625.09;2064127;28;20237;-62
2022/03/31 04:03:33;;;;;;;25.15;16.58;;;;;;;4.61;96.19;94623.47;2061373;28;20236;-62
2022/03/31 04:04:35;;;;;;;27.40;16.90;;;;;;;4.64;95.98;94621.44;2061241;28;20203;-62
2022/03/31 04:05:37;;;;;;;27.33;17.88;;;;;;;4.62;96.16;94625.09;2063104;28;20202;-63
2022/03/31 04:06:39;;;;;;;29.83;16.95;;;;;;;4.68;96.21;94620.25;2063028;28;20198;-63
2022/03/31 04:07:41;;;;;;;27.58;17.40;;;;;;;4.54;96.41;94618.72;2063529;28;20212;-63
2022/03/31 04:08:42;;;;;;;35.47;18.67;;;;;;;4.60;96.20;94621.78;2071705;28;20660;-62
2022/03/31 04:09:44;;;;;;;30.30;18.70;;;;;;;4.56;96.66;94610.84;2071519;28;20201;-62
2022/03/31 04:10:45;;;;;;;28.80;18.17;;;;;;;4.58;96.34;94616.72;2063148;28;20233;-62
2022/03/31 04:11:46;;;;;;;28.08;19.13;;;;;;;4.72;96.01;94613.91;2064127;28;20202;-62
2022/03/31 04:12:49;;;;;;;31.02;19.13;;;;;;;4.66;95.87;94606.59;2064163;28;20214;-62
2022/03/31 04:15:47;;;;;;;25.77;16.75;;;;;;;4.51;96.72;94618.97;2063904;28;20215;-63
2022/03/31 04:16:49;;;;;;;30.45;18.40;;;;;;;4.60;96.48;94616.63;2064331;28;20635;-63
2022/03/31 04:17:50;;;;;;;28.27;17.55;;;;;;;4.51;96.42;94608.59;2064262;28;20229;-62
2022/03/31 04:18:52;;;;;;;28.95;18.70;;;;;;;4.48;96.85;94619.19;2064462;28;20639;-63
2022/03/31 04:19:53;;;;;;;34.17;19.02;;;;;;;4.46;97.21;94618.47;2064412;28;20549;-63
2022/03/31 04:20:55;;;;;;;31.08;19.58;;;;;;;4.44;96.91;94620.38;2063715;28;20228;-63
2022/03/31 04:21:57;;;;;;;26.65;17.95;;;;;;;4.43;96.28;94603.19;2063422;28;20203;-63
2022/03/31 04:22:58;;;;;;;30.15;19.48;;;;;;;4.45;96.57;94610.81;2064340;28;20308;-62
2022/03/31 04:23:59;;;;;;;26.75;18.77;;;;;;;4.44;96.92;94619.53;2064433;28;20209;-63
2022/03/31 04:25:01;;;;;;;30.15;18.50;;;;;;;4.35;97.08;94608.09;2063692;28;20210;-63
2022/03/31 04:26:03;;;;;;;30.25;18.23;;;;;;;4.45;96.90;94616.84;2063862;28;20276;-63
2022/03/31 04:27:05;;;;;;;32.13;18.77;;;;;;;4.35;96.81;94611.53;2064376;28;20385;-63
2022/03/31 04:28:07;;;;;;;31.98;20.20;;;;;;;4.38;96.89;94612.25;2064352;28;20205;-64
2022/03/31 04:29:10;;;;;;;31.70;19.58;;;;;;;4.40;96.92;94618.13;2064371;28;20822;-63
2022/03/31 04:30:12;;;;;;;33.53;20.67;;;;;;;4.37;97.14;94611.38;2062951;28;20880;-63
2022/03/31 04:31:14;;;;;;;30.38;19.00;;;;;;;4.42;97.16;94616.25;2063872;28;20681;-63
2022/03/31 04:32:15;;;;;;;28.80;18.40;;;;;;;4.40;97.08;94616.34;2063840;28;20337;-63
2022/03/31 04:33:17;;;;;;;30.00;19.52;;;;;;;4.38;97.35;94609.66;2063848;28;20203;-63
2022/03/31 04:34:19;;;;;;;28.50;18.20;;;;;;;4.41;96.57;94606.81;2063435;28;20203;-63
2022/03/31 04:35:21;;;;;;;27.75;17.85;;;;;;;4.40;96.50;94612.94;2065220;28;20195;-63
2022/03/31 04:36:23;;;;;;;31.95;20.30;;;;;;;4.38;96.34;94612.25;2063667;28;20214;-63
2022/03/31 04:37:25;;;;;;;29.00;18.70;;;;;;;4.26;96.33;94601.03;2063649;28;20210;-63
2022/03/31 04:38:26;;;;;;;34.45;20.15;;;;;;;4.26;96.82;94598.44;2064716;28;20203;-63
2022/03/31 04:39:28;;;;;;;33.00;21.35;;;;;;;4.22;96.79;94603.03;2064407;28;20198;-64
2022/03/31 04:40:30;;;;;;;30.83;19.23;;;;;;;4.21;96.60;94603.13;2064247;28;20199;-63
2022/03/31 04:41:32;;;;;;;34.47;20.25;;;;;;;4.20;96.63;94602.31;2062042;28;20689;-64
2022/03/31 04:42:34;;;;;;;36.65;21.27;;;;;;;4.17;96.85;94594.75;2064078;28;20195;-63
2022/03/31 04:43:36;;;;;;;31.40;19.65;;;;;;;4.11;96.85;94595.22;2064700;28;20202;-63
2022/03/31 04:44:38;;;;;;;35.00;19.50;;;;;;;4.00;96.94;94592.59;2064183;28;20201;-63
2022/03/31 04:45:41;;;;;;;33.92;19.40;;;;;;;4.00;96.90;94597.78;2063947;28;20221;-61
2022/03/31 04:46:43;;;;;;;32.78;20.60;;;;;;;3.95;97.15;94595.56;2064065;28;20619;-61
2022/03/31 04:47:45;;;;;;;30.55;19.42;;;;;;;3.95;97.33;94598.13;2063927;28;20202;-61
2022/03/31 04:48:46;;;;;;;32.17;19.67;;;;;;;3.93;97.43;94595.66;2064056;28;20205;-61
2022/03/31 04:49:48;;;;;;;38.22;19.65;;;;;;;3.93;97.53;94593.06;2064254;28;20221;-61
2022/03/31 04:50:49;;;;;;;28.45;18.52;;;;;;;3.97;97.56;94580.72;2063597;28;20241;-61
2022/03/31 04:51:51;;;;;;;36.35;20.13;;;;;;;3.96;97.22;94592.03;2064117;28;20551;-61
2022/03/31 04:52:52;;;;;;;31.02;20.10;;;;;;;3.83;97.52;94575.75;2063608;28;20202;-61
2022/03/31 04:53:54;;;;;;;29.70;18.88;;;;;;;3.90;97.72;94592.47;2061285;28;20257;-61